createdAt,value
2019-05-11T00:02:23.538Z,4.80
2019-05-11T00:05:12.076Z,4.60
2019-05-11T00:08:02.666Z,4.70
2019-05-11T00:10:52.134Z,5.13
2019-05-11T00:13:41.560Z,5.10
2019-05-11T00:16:30.445Z,5.10
2019-05-11T00:19:19.905Z,5.80
2019-05-11T00:22:09.337Z,5.97
2019-05-11T00:24:58.187Z,5.20
2019-05-11T00:27:46.837Z,5.70
2019-05-11T00:30:35.619Z,6.33
2019-05-11T00:33:25.090Z,5.30
2019-05-11T00:36:14.617Z,5.70
2019-05-11T00:39:06.833Z,5.90
2019-05-11T00:41:56.747Z,6.40
2019-05-11T00:44:47.272Z,6.00
2019-05-11T00:47:36.915Z,5.50
2019-05-11T00:50:38.005Z,6.07
2019-05-11T00:53:16.497Z,5.80
2019-05-11T00:56:05.871Z,5.67
2019-05-11T00:58:54.456Z,5.80
2019-05-11T01:01:44.575Z,5.53
2019-05-11T01:04:33.944Z,5.77
2019-05-11T01:07:22.356Z,5.37
2019-05-11T01:10:23.807Z,6.27
2019-05-11T01:13:02.211Z,6.33
2019-05-11T01:15:51.869Z,5.57
2019-05-11T01:18:41.244Z,6.20
2019-05-11T01:21:30.991Z,6.40
2019-05-11T01:24:20.205Z,6.90
2019-05-11T01:27:08.887Z,6.33
2019-05-11T01:29:59.302Z,6.57
2019-05-11T01:32:48.994Z,6.17
2019-05-11T01:35:38.219Z,5.67
2019-05-11T01:38:27.483Z,6.27
2019-05-11T01:41:17.135Z,6.40
2019-05-11T01:44:06.290Z,6.37
2019-05-11T01:46:55.013Z,6.10
2019-05-11T01:49:45.101Z,6.07
2019-05-11T01:52:34.420Z,6.10
2019-05-11T01:55:23.199Z,5.47
2019-05-11T01:58:12.159Z,5.70
2019-05-11T02:01:01.765Z,5.73
2019-05-11T02:03:50.926Z,5.30
2019-05-11T02:06:39.719Z,6.27
2019-05-11T02:09:28.369Z,6.40
2019-05-11T02:12:17.021Z,6.40
2019-05-11T02:15:05.698Z,6.63
2019-05-11T02:17:54.968Z,6.87
2019-05-11T02:20:45.099Z,6.00
2019-05-11T02:23:34.640Z,6.50
2019-05-11T02:26:23.964Z,6.60
2019-05-11T02:29:13.318Z,7.10
2019-05-11T02:32:01.927Z,6.07
2019-05-11T02:34:51.149Z,6.57
2019-05-11T02:37:40.680Z,5.67
2019-05-11T02:40:29.987Z,6.00
2019-05-11T02:43:19.883Z,5.33
2019-05-11T02:46:08.952Z,5.10
2019-05-11T02:48:57.872Z,4.70
2019-05-11T02:51:46.777Z,4.83
2019-05-11T02:54:36.374Z,5.27
2019-05-11T02:57:25.357Z,5.13
2019-05-11T03:00:15.746Z,5.30
2019-05-11T03:03:04.117Z,5.70
2019-05-11T03:05:53.378Z,5.57
2019-05-11T03:08:42.684Z,6.30
2019-05-11T03:11:31.865Z,5.80
2019-05-11T03:14:21.666Z,4.43
2019-05-11T03:17:18.003Z,4.40
2019-05-11T03:20:07.610Z,4.87
2019-05-11T03:22:56.692Z,4.90
2019-05-11T03:25:46.126Z,5.17
2019-05-11T03:28:35.281Z,4.90
2019-05-11T03:31:23.610Z,4.53
2019-05-11T03:34:13.105Z,4.07
2019-05-11T03:37:02.421Z,4.30
2019-05-11T03:39:52.200Z,4.43
2019-05-11T03:42:40.930Z,4.63
2019-05-11T03:45:29.916Z,4.33
2019-05-11T03:48:19.576Z,4.60
2019-05-11T03:51:09.047Z,4.00
2019-05-11T03:53:58.250Z,4.50
2019-05-11T03:56:48.316Z,4.43
2019-05-11T03:59:37.647Z,4.10
2019-05-11T04:02:26.797Z,4.40
2019-05-11T04:05:16.128Z,4.70
2019-05-11T04:08:05.044Z,4.40
2019-05-11T04:10:54.044Z,5.03
2019-05-11T04:13:43.642Z,5.37
2019-05-11T04:16:32.922Z,5.40
2019-05-11T04:19:21.985Z,5.30
2019-05-11T04:22:11.707Z,5.90
2019-05-11T04:25:01.015Z,5.60
2019-05-11T04:27:49.720Z,5.33
2019-05-11T04:30:39.326Z,5.30
2019-05-11T04:33:32.748Z,5.53
2019-05-11T04:36:19.001Z,5.00
2019-05-11T04:39:07.436Z,5.30
2019-05-11T04:41:56.698Z,5.30
2019-05-11T04:44:46.718Z,5.50
2019-05-11T04:47:35.862Z,5.10
2019-05-11T04:50:25.498Z,5.30
2019-05-11T04:53:14.923Z,5.10
2019-05-11T04:56:03.236Z,6.27
2019-05-11T04:58:52.643Z,6.13
2019-05-11T05:01:42.106Z,6.63
2019-05-11T05:04:31.610Z,7.50
2019-05-11T05:07:20.834Z,8.83
2019-05-11T05:10:14.103Z,7.53
2019-05-11T05:13:10.354Z,8.33
2019-05-11T05:15:51.267Z,7.63
2019-05-11T05:18:40.208Z,8.17
2019-05-11T05:21:29.321Z,8.03
2019-05-11T05:24:17.797Z,8.00
2019-05-11T05:27:07.300Z,8.60
2019-05-11T05:29:57.345Z,7.67
2019-05-11T05:32:45.739Z,7.70
2019-05-11T05:35:34.833Z,7.50
2019-05-11T05:38:23.755Z,7.53
2019-05-11T05:41:12.448Z,8.00
2019-05-11T05:44:01.824Z,7.43
2019-05-11T05:46:50.451Z,7.40
2019-05-11T05:49:39.882Z,7.43
2019-05-11T05:52:29.769Z,6.17
2019-05-11T05:55:19.731Z,7.33
2019-05-11T05:58:08.484Z,7.13
2019-05-11T06:00:57.647Z,6.67
2019-05-11T06:03:46.728Z,6.60
2019-05-11T06:06:35.605Z,6.83
2019-05-11T06:09:24.797Z,7.00
2019-05-11T06:12:14.710Z,7.10
2019-05-11T06:15:04.777Z,7.13
2019-05-11T06:17:54.431Z,6.83
2019-05-11T06:20:44.088Z,7.43
2019-05-11T06:23:32.441Z,6.80
2019-05-11T06:26:22.430Z,7.20
2019-05-11T06:29:12.101Z,6.97
2019-05-11T06:32:01.717Z,6.87
2019-05-11T06:34:51.665Z,6.87
2019-05-11T06:37:40.857Z,5.77
2019-05-11T06:40:30.257Z,6.20
2019-05-11T06:43:19.792Z,5.33
2019-05-11T06:46:10.305Z,5.33
2019-05-11T06:48:59.960Z,4.77
2019-05-11T06:51:49.088Z,5.47
2019-05-11T06:54:37.912Z,4.93
2019-05-11T06:57:26.858Z,4.83
2019-05-11T07:00:16.508Z,4.80
2019-05-11T07:03:06.044Z,4.90
2019-05-11T07:05:54.351Z,4.40
2019-05-11T07:08:43.980Z,4.20
2019-05-11T07:11:33.145Z,4.53
2019-05-11T07:14:22.606Z,4.50
2019-05-11T07:17:11.569Z,4.73
2019-05-11T07:20:00.894Z,4.47
2019-05-11T07:22:50.576Z,4.30
2019-05-11T07:25:39.367Z,3.97
2019-05-11T07:28:28.808Z,4.47
2019-05-11T07:31:17.932Z,4.30
2019-05-11T07:34:08.142Z,4.10
2019-05-11T07:36:58.053Z,4.33
2019-05-11T07:39:48.735Z,4.10
2019-05-11T07:42:38.390Z,4.00
2019-05-11T07:45:29.114Z,4.10
2019-05-11T07:48:18.799Z,4.20
2019-05-11T07:51:08.893Z,3.87
2019-05-11T07:53:58.160Z,3.70
2019-05-11T07:56:47.946Z,3.70
2019-05-11T07:59:38.290Z,3.70
2019-05-11T08:02:28.498Z,4.07
2019-05-11T08:05:18.130Z,4.27
2019-05-11T08:08:08.702Z,3.87
2019-05-11T08:10:58.773Z,4.10
2019-05-11T08:13:48.241Z,3.33
2019-05-11T08:16:39.126Z,3.50
2019-05-11T08:19:28.432Z,3.20
2019-05-11T08:22:22.147Z,2.70
2019-05-11T08:25:09.284Z,2.60
2019-05-11T08:27:59.235Z,2.40
2019-05-11T08:30:48.784Z,2.40
2019-05-11T08:33:38.896Z,2.00
2019-05-11T08:36:29.134Z,2.10
2019-05-11T08:39:18.733Z,2.30
2019-05-11T08:42:08.710Z,2.63
2019-05-11T08:45:15.350Z,2.43
2019-05-11T08:47:49.910Z,2.10
2019-05-11T08:50:38.662Z,2.00
2019-05-11T08:53:28.527Z,2.40
2019-05-11T08:56:18.899Z,2.40
2019-05-11T08:59:10.106Z,2.00
2019-05-11T09:01:59.017Z,1.90
2019-05-11T09:04:48.581Z,2.10
2019-05-11T09:07:38.515Z,2.03
2019-05-11T09:10:28.190Z,2.30
2019-05-11T09:13:18.580Z,2.13
2019-05-11T09:16:08.066Z,2.00
2019-05-11T09:18:58.275Z,2.03
2019-05-11T09:21:48.235Z,2.40
2019-05-11T09:24:38.598Z,2.20
2019-05-11T09:27:28.574Z,2.10
2019-05-11T09:30:18.484Z,2.00
2019-05-11T09:33:08.594Z,2.60
2019-05-11T09:35:58.545Z,2.30
2019-05-11T09:38:49.040Z,2.00
2019-05-11T09:41:38.523Z,2.20
2019-05-11T09:44:29.041Z,1.90
2019-05-11T09:47:18.940Z,1.80
2019-05-11T09:50:08.926Z,1.50
2019-05-11T09:52:58.487Z,1.67
2019-05-11T09:55:48.241Z,1.63
2019-05-11T09:58:38.725Z,1.53
2019-05-11T10:01:29.654Z,1.57
2019-05-11T10:04:19.182Z,1.60
2019-05-11T10:07:09.114Z,1.80
2019-05-11T10:09:58.621Z,1.90
2019-05-11T10:12:48.988Z,2.03
2019-05-11T10:15:38.726Z,1.87
2019-05-11T10:18:29.652Z,1.80
2019-05-11T10:21:18.978Z,1.80
2019-05-11T10:24:08.618Z,1.90
2019-05-11T10:26:59.026Z,1.90
2019-05-11T10:29:48.488Z,1.70
2019-05-11T10:32:38.689Z,1.80
2019-05-11T10:35:28.866Z,1.90
2019-05-11T10:38:18.213Z,1.70
2019-05-11T10:41:08.713Z,1.70
2019-05-11T10:43:58.045Z,1.67
2019-05-11T10:46:48.350Z,1.60
2019-05-11T10:49:37.969Z,1.47
2019-05-11T10:52:28.605Z,1.50
2019-05-11T10:55:19.352Z,2.00
2019-05-11T10:57:49.985Z,1.67
2019-05-11T11:00:21.980Z,2.13
2019-05-11T11:02:52.767Z,2.30
2019-05-11T11:05:23.625Z,3.40
2019-05-11T11:07:54.403Z,2.20
2019-05-11T11:10:25.242Z,2.87
2019-05-11T11:12:57.840Z,1.90
2019-05-11T11:15:29.041Z,2.00
2019-05-11T11:18:00.205Z,1.80
2019-05-11T11:20:31.443Z,1.90
2019-05-11T11:23:02.391Z,2.60
2019-05-11T11:25:33.303Z,1.83
2019-05-11T11:28:04.076Z,1.57
2019-05-11T11:30:35.001Z,1.40
2019-05-11T11:33:07.817Z,1.40
2019-05-11T11:35:39.114Z,1.60
2019-05-11T11:38:10.423Z,1.80
2019-05-11T11:40:42.910Z,2.20
2019-05-11T11:43:14.042Z,2.13
2019-05-11T11:45:44.846Z,1.70
2019-05-11T11:48:15.606Z,1.60
2019-05-11T11:50:48.103Z,1.60
2019-05-11T11:53:19.116Z,1.70
2019-05-11T11:55:49.956Z,1.80
2019-05-11T11:58:23.763Z,1.50
2019-05-11T12:00:54.398Z,1.83
2019-05-11T12:03:27.533Z,1.73
2019-05-11T12:05:58.259Z,2.20
2019-05-11T12:08:30.005Z,2.33
2019-05-11T12:11:00.867Z,3.13
2019-05-11T12:13:31.950Z,3.73
2019-05-11T12:16:02.795Z,3.10
2019-05-11T12:18:33.893Z,3.00
2019-05-11T12:21:05.007Z,3.37
2019-05-11T12:23:38.100Z,3.90
2019-05-11T12:26:08.787Z,4.40
2019-05-11T12:28:39.800Z,4.93
2019-05-11T12:31:10.581Z,5.40
2019-05-11T12:33:41.663Z,4.90
2019-05-11T12:36:12.443Z,4.70
2019-05-11T12:38:43.447Z,4.77
2019-05-11T12:41:14.462Z,3.90
2019-05-11T12:43:45.451Z,3.37
2019-05-11T12:46:18.643Z,3.40
2019-05-11T12:48:48.826Z,3.30
2019-05-11T12:51:19.776Z,3.50
2019-05-11T12:53:50.724Z,3.17
2019-05-11T12:56:21.871Z,2.50
2019-05-11T12:58:53.406Z,1.93
2019-05-11T13:01:24.561Z,1.90
2019-05-11T13:03:57.902Z,5.53
2019-05-11T13:06:28.702Z,19.67
2019-05-11T13:09:02.006Z,10.27
2019-05-11T13:11:33.728Z,7.57
2019-05-11T13:14:04.933Z,2.23
2019-05-11T13:16:37.865Z,2.50
2019-05-11T13:19:08.986Z,2.10
2019-05-11T13:21:40.078Z,2.00
2019-05-11T13:24:11.207Z,2.00
2019-05-11T13:26:42.511Z,2.20
2019-05-11T13:29:13.678Z,2.00
2019-05-11T13:31:45.065Z,1.70
2019-05-11T13:34:17.927Z,2.53
2019-05-11T13:36:49.104Z,2.00
2019-05-11T13:39:20.728Z,1.90
2019-05-11T13:41:51.822Z,2.03
2019-05-11T13:44:22.710Z,1.90
2019-05-11T13:46:53.681Z,1.67
2019-05-11T13:49:25.080Z,1.60
2019-05-11T13:51:58.368Z,1.70
2019-05-11T13:54:29.775Z,1.57
2019-05-11T13:57:02.318Z,1.57
2019-05-11T13:59:34.324Z,1.77
2019-05-11T14:02:08.141Z,1.70
2019-05-11T14:04:38.654Z,1.53
2019-05-11T14:07:09.794Z,2.17
2019-05-11T14:09:40.930Z,2.63
2019-05-11T14:12:11.838Z,2.00
2019-05-11T14:14:42.927Z,2.30
2019-05-11T14:17:13.833Z,2.30
2019-05-11T14:19:45.019Z,2.80
2019-05-11T14:22:17.889Z,2.80
2019-05-11T14:24:49.089Z,2.80
2019-05-11T14:27:19.974Z,2.20
2019-05-11T14:29:50.899Z,2.03
2019-05-11T14:32:22.929Z,1.70
2019-05-11T14:34:53.775Z,1.90
2019-05-11T14:37:24.946Z,1.90
2019-05-11T14:39:58.232Z,2.07
2019-05-11T14:42:32.991Z,2.20
2019-05-11T14:45:04.209Z,2.43
2019-05-11T14:47:35.433Z,2.13
2019-05-11T14:50:08.613Z,2.20
2019-05-11T14:52:39.298Z,2.20
2019-05-11T14:55:10.358Z,2.30
2019-05-11T14:57:41.384Z,2.60
2019-05-11T15:00:13.010Z,2.67
2019-05-11T15:02:49.265Z,2.60
2019-05-11T15:05:21.858Z,2.40
2019-05-11T15:07:53.152Z,2.20
2019-05-11T15:10:24.159Z,2.20
2019-05-11T15:12:55.283Z,2.00
2019-05-11T15:15:27.960Z,2.03
2019-05-11T15:17:58.995Z,2.07
2019-05-11T15:20:29.863Z,2.30
2019-05-11T15:23:00.749Z,2.20
2019-05-11T15:25:31.591Z,2.30
2019-05-11T15:28:02.474Z,2.03
2019-05-11T15:30:33.369Z,2.50
2019-05-11T15:33:04.503Z,10.20
2019-05-11T15:35:37.754Z,6.63
2019-05-11T15:38:08.892Z,2.80
2019-05-11T15:40:39.951Z,2.43
2019-05-11T15:43:11.542Z,2.30
2019-05-11T15:45:42.415Z,2.23
2019-05-11T15:48:13.679Z,2.43
2019-05-11T15:50:44.834Z,2.97
2019-05-11T15:53:17.892Z,2.20
2019-05-11T15:55:49.127Z,2.13
2019-05-11T15:58:21.828Z,2.10
2019-05-11T16:00:53.014Z,2.07
2019-05-11T16:03:23.866Z,1.80
2019-05-11T16:05:54.966Z,1.90
2019-05-11T16:08:28.185Z,2.20
2019-05-11T16:10:59.775Z,2.80
2019-05-11T16:13:30.642Z,2.30
2019-05-11T16:16:01.635Z,3.17
2019-05-11T16:18:32.749Z,5.43
2019-05-11T16:21:03.656Z,15.30
2019-05-11T16:23:34.887Z,4.17
2019-05-11T16:26:08.386Z,2.83
2019-05-11T16:28:39.292Z,3.10
2019-05-11T16:31:11.865Z,3.33
2019-05-11T16:33:43.307Z,3.00
2019-05-11T16:36:17.837Z,2.63
2019-05-11T16:38:48.527Z,3.90
2019-05-11T16:41:21.100Z,4.67
2019-05-11T16:44:10.719Z,3.70
2019-05-11T16:46:41.643Z,3.53
2019-05-11T16:49:24.941Z,3.63
2019-05-11T16:51:45.148Z,3.47
2019-05-11T16:54:16.120Z,3.90
2019-05-11T16:56:48.646Z,4.30
2019-05-11T16:59:19.849Z,4.70
2019-05-11T17:01:51.022Z,5.13
2019-05-11T17:04:22.132Z,4.90
2019-05-11T17:06:53.211Z,4.67
2019-05-11T17:09:24.134Z,5.20
2019-05-11T17:11:57.779Z,4.93
2019-05-11T17:14:28.321Z,4.57
2019-05-11T17:16:59.510Z,4.90
2019-05-11T17:19:42.769Z,5.70
2019-05-11T17:22:03.045Z,5.33
2019-05-11T17:24:34.384Z,4.40
2019-05-11T17:27:05.628Z,4.90
2019-05-11T17:29:38.122Z,4.70
2019-05-11T17:32:10.359Z,5.53
2019-05-11T17:34:41.838Z,5.10
2019-05-11T17:37:13.265Z,4.13
2019-05-11T17:39:44.251Z,4.03
2019-05-11T17:42:18.026Z,4.13
2019-05-11T17:44:48.570Z,4.10
2019-05-11T17:47:44.643Z,4.40
2019-05-11T17:50:15.744Z,4.60
2019-05-11T17:52:47.930Z,4.77
2019-05-11T17:55:20.717Z,4.50
2019-05-11T17:57:54.068Z,4.40
2019-05-11T18:00:24.471Z,5.10
2019-05-11T18:02:55.376Z,5.00
2019-05-11T18:05:26.305Z,4.80
2019-05-11T18:07:58.006Z,4.93
2019-05-11T18:10:29.966Z,5.17
2019-05-11T18:13:04.018Z,4.77
2019-05-11T18:15:34.424Z,4.67
2019-05-11T18:18:05.852Z,4.43
2019-05-11T18:20:38.077Z,4.20
2019-05-11T18:23:09.490Z,4.83
2019-05-11T18:25:40.315Z,4.00
2019-05-11T18:28:14.143Z,3.53
2019-05-11T18:30:44.039Z,3.63
2019-05-11T18:33:15.376Z,3.60
2019-05-11T18:35:46.549Z,3.40
2019-05-11T18:38:19.181Z,3.93
2019-05-11T18:40:51.898Z,3.70
2019-05-11T18:43:22.803Z,3.40
2019-05-11T18:45:53.919Z,3.80
2019-05-11T18:48:38.107Z,3.20
2019-05-11T18:51:05.644Z,3.10
2019-05-11T18:53:36.403Z,3.30
2019-05-11T18:56:08.759Z,3.07
2019-05-11T18:58:39.781Z,2.90
2019-05-11T19:01:10.882Z,3.00
2019-05-11T19:03:41.720Z,2.80
2019-05-11T19:06:12.740Z,3.20
2019-05-11T19:08:44.054Z,3.00
2019-05-11T19:11:14.790Z,3.00
2019-05-11T19:13:47.783Z,2.90
2019-05-11T19:16:18.947Z,3.20
2019-05-11T19:18:49.681Z,2.80
2019-05-11T19:21:20.717Z,3.30
2019-05-11T19:23:51.722Z,3.33
2019-05-11T19:26:22.496Z,3.67
2019-05-11T19:28:53.327Z,3.60
2019-05-11T19:31:24.526Z,3.53
2019-05-11T19:33:55.361Z,3.40
2019-05-11T19:36:27.757Z,3.60
2019-05-11T19:39:00.259Z,3.50
2019-05-11T19:41:31.108Z,3.50
2019-05-11T19:44:01.872Z,3.43
2019-05-11T19:46:32.977Z,3.40
2019-05-11T19:49:03.854Z,3.40
2019-05-11T19:51:34.631Z,3.53
2019-05-11T19:54:05.447Z,3.80
2019-05-11T19:56:38.384Z,3.70
2019-05-11T19:59:09.017Z,3.70
2019-05-11T20:01:40.755Z,3.77
2019-05-11T20:04:12.059Z,4.27
2019-05-11T20:06:43.089Z,4.03
2019-05-11T20:09:14.091Z,3.97
2019-05-11T20:11:44.874Z,4.10
2019-05-11T20:14:16.200Z,4.00
2019-05-11T20:16:47.870Z,3.90
2019-05-11T20:19:18.861Z,4.10
2019-05-11T20:21:49.816Z,4.40
2019-05-11T20:24:20.575Z,4.50
2019-05-11T20:26:51.594Z,4.47
2019-05-11T20:29:22.605Z,4.37
2019-05-11T20:31:53.628Z,4.27
2019-05-11T20:34:24.630Z,4.07
2019-05-11T20:36:55.482Z,4.67
2019-05-11T20:39:28.706Z,4.17
2019-05-11T20:41:59.280Z,4.67
2019-05-11T20:44:30.042Z,4.33
2019-05-11T20:47:01.310Z,4.20
2019-05-11T20:49:32.383Z,4.43
2019-05-11T20:52:03.409Z,4.40
2019-05-11T20:54:34.629Z,4.50
2019-05-11T20:57:05.727Z,4.80
2019-05-11T20:59:38.179Z,8.33
2019-05-11T21:02:10.224Z,6.77
2019-05-11T21:04:41.213Z,5.30
2019-05-11T21:07:12.200Z,5.03
2019-05-11T21:09:43.193Z,4.50
2019-05-11T21:12:14.213Z,4.97
2019-05-11T21:14:45.078Z,5.20
2019-05-11T21:17:18.164Z,5.30
2019-05-11T21:19:48.640Z,5.60
2019-05-11T21:22:19.660Z,6.00
2019-05-11T21:24:50.422Z,5.53
2019-05-11T21:27:21.245Z,5.87
2019-05-11T21:29:53.521Z,6.30
2019-05-11T21:32:24.765Z,6.03
2019-05-11T21:34:58.353Z,6.20
2019-05-11T21:37:28.316Z,6.17
2019-05-11T21:39:59.075Z,6.87
2019-05-11T21:42:29.853Z,6.77
2019-05-11T21:45:01.582Z,6.63
2019-05-11T21:47:32.781Z,6.67
2019-05-11T21:50:03.744Z,6.70
2019-05-11T21:52:34.763Z,7.00
2019-05-11T21:55:06.169Z,7.50
2019-05-11T21:57:38.801Z,7.17
2019-05-11T22:00:10.166Z,7.63
2019-05-11T22:02:42.648Z,7.47
2019-05-11T22:05:13.475Z,8.00
2019-05-11T22:07:44.312Z,7.50
2019-05-11T22:10:17.288Z,7.73
2019-05-11T22:12:48.993Z,8.60
2019-05-11T22:15:21.185Z,8.07
2019-05-11T22:17:52.212Z,8.43
2019-05-11T22:20:23.200Z,8.70
2019-05-11T22:22:54.281Z,8.60
2019-05-11T22:25:25.049Z,8.40
2019-05-11T22:27:57.612Z,9.13
2019-05-11T22:30:28.418Z,8.73
2019-05-11T22:32:59.198Z,8.70
2019-05-11T22:35:30.461Z,8.53
2019-05-11T22:38:01.241Z,8.20
2019-05-11T22:40:33.208Z,8.07
2019-05-11T22:43:03.998Z,8.10
2019-05-11T22:45:34.834Z,7.83
2019-05-11T22:48:07.716Z,7.83
2019-05-11T22:50:38.407Z,8.00
2019-05-11T22:53:11.667Z,7.50
2019-05-11T22:55:41.670Z,7.63
2019-05-11T22:58:12.690Z,7.97
2019-05-11T23:00:44.101Z,7.93
2019-05-11T23:03:14.886Z,8.57
2019-05-11T23:05:47.729Z,9.17
2019-05-11T23:08:18.744Z,8.23
2019-05-11T23:10:49.656Z,8.00
2019-05-11T23:13:20.437Z,8.20
2019-05-11T23:15:51.203Z,8.17
2019-05-11T23:18:22.232Z,8.47
2019-05-11T23:20:53.108Z,8.50
2019-05-11T23:23:23.977Z,8.33
2019-05-11T23:25:54.743Z,8.23
2019-05-11T23:28:25.660Z,9.10
2019-05-11T23:30:58.275Z,8.20
2019-05-11T23:33:29.502Z,9.00
2019-05-11T23:36:00.513Z,8.53
2019-05-11T23:38:31.372Z,7.87
2019-05-11T23:41:02.396Z,9.07
2019-05-11T23:43:33.163Z,8.80
2019-05-11T23:46:04.423Z,8.40
2019-05-11T23:48:38.411Z,9.17
2019-05-11T23:51:08.806Z,9.20
2019-05-11T23:53:40.133Z,9.00
2019-05-11T23:56:11.641Z,9.03
2019-05-11T23:58:42.637Z,8.83
